createdAt,value
2018-01-22T00:00:34.466Z,91.10
2018-01-22T00:03:01.985Z,91.10
2018-01-22T00:05:33.707Z,91.20
2018-01-22T00:08:01.212Z,91.20
2018-01-22T00:10:29.503Z,91.20
2018-01-22T00:12:57.812Z,91.20
2018-01-22T00:15:25.331Z,91.20
2018-01-22T00:17:53.063Z,91.30
2018-01-22T00:20:20.576Z,91.10
2018-01-22T00:22:48.154Z,91.40
2018-01-22T00:25:16.701Z,91.50
2018-01-22T00:27:44.249Z,91.40
2018-01-22T00:30:11.816Z,91.50
2018-01-22T00:32:39.412Z,91.50
2018-01-22T00:35:06.948Z,91.50
2018-01-22T00:37:34.480Z,91.50
2018-01-22T00:40:02.062Z,91.50
2018-01-22T00:42:29.565Z,91.60
2018-01-22T00:44:57.910Z,91.60
2018-01-22T00:47:25.423Z,91.60
2018-01-22T00:49:52.977Z,91.90
2018-01-22T00:52:20.492Z,91.60
2018-01-22T00:54:48.009Z,91.60
2018-01-22T00:57:16.581Z,91.70
2018-01-22T00:59:44.130Z,91.60
2018-01-22T01:02:11.928Z,91.70
2018-01-22T01:04:39.506Z,91.70
2018-01-22T01:07:09.342Z,91.70
2018-01-22T01:09:36.877Z,91.70
2018-01-22T01:12:04.393Z,91.80
2018-01-22T01:14:32.696Z,91.80
2018-01-22T01:17:00.261Z,91.80
2018-01-22T01:19:27.769Z,91.80
2018-01-22T01:21:55.284Z,91.90
2018-01-22T01:24:22.800Z,91.80
2018-01-22T01:26:50.332Z,91.80
2018-01-22T01:29:17.894Z,91.90
2018-01-22T01:31:45.393Z,91.90
2018-01-22T01:34:12.919Z,91.90
2018-01-22T01:36:40.424Z,92.00
2018-01-22T01:39:08.005Z,91.90
2018-01-22T01:41:35.535Z,92.00
2018-01-22T01:44:03.068Z,92.00
2018-01-22T01:46:30.593Z,92.00
2018-01-22T01:49:03.962Z,92.00
2018-01-22T01:51:31.492Z,92.00
2018-01-22T01:53:59.767Z,92.10
2018-01-22T01:56:28.075Z,92.00
2018-01-22T01:58:57.188Z,92.00
2018-01-22T02:01:24.986Z,92.10
2018-01-22T02:03:52.533Z,91.90
2018-01-22T02:06:20.062Z,92.00
2018-01-22T02:08:48.332Z,92.00
2018-01-22T02:11:16.607Z,92.00
2018-01-22T02:13:47.578Z,92.00
2018-01-22T02:16:15.240Z,92.00
2018-01-22T02:18:42.789Z,91.90
2018-01-22T02:21:11.147Z,91.80
2018-01-22T02:23:38.657Z,91.80
2018-01-22T02:26:06.171Z,92.00
2018-01-22T02:28:33.712Z,91.90
2018-01-22T02:31:01.328Z,91.90
2018-01-22T02:33:29.626Z,91.80
2018-01-22T02:35:57.899Z,91.80
2018-01-22T02:38:27.873Z,91.70
2018-01-22T02:40:55.827Z,92.00
2018-01-22T02:43:23.352Z,91.70
2018-01-22T02:45:50.850Z,91.70
2018-01-22T02:48:18.379Z,91.60
2018-01-22T02:50:46.669Z,91.90
2018-01-22T02:53:15.016Z,91.90
2018-01-22T02:55:42.647Z,91.90
2018-01-22T02:58:10.153Z,91.90
2018-01-22T03:00:37.664Z,91.90
2018-01-22T03:03:05.185Z,91.90
2018-01-22T03:05:32.812Z,91.90
2018-01-22T03:08:00.486Z,91.90
2018-01-22T03:10:28.015Z,91.90
2018-01-22T03:12:55.606Z,92.00
2018-01-22T03:15:23.116Z,92.10
2018-01-22T03:17:50.651Z,92.10
2018-01-22T03:20:18.264Z,92.10
2018-01-22T03:22:45.788Z,92.10
2018-01-22T03:25:13.373Z,92.10
2018-01-22T03:27:41.665Z,92.00
2018-01-22T03:30:09.209Z,92.00
2018-01-22T03:32:36.849Z,92.10
2018-01-22T03:35:04.365Z,92.10
2018-01-22T03:37:31.872Z,92.00
2018-01-22T03:40:01.168Z,92.10
2018-01-22T03:42:29.545Z,92.10
2018-01-22T03:44:57.852Z,92.10
2018-01-22T03:47:25.382Z,92.10
2018-01-22T03:49:52.889Z,92.00
2018-01-22T03:52:20.424Z,92.00
2018-01-22T03:54:48.692Z,92.00
2018-01-22T03:57:16.301Z,91.90
2018-01-22T03:59:43.864Z,92.00
2018-01-22T04:02:11.383Z,92.00
2018-01-22T04:04:38.925Z,92.00
2018-01-22T04:07:07.514Z,92.00
2018-01-22T04:09:36.347Z,92.00
2018-01-22T04:12:03.857Z,92.10
2018-01-22T04:14:31.384Z,92.20
2018-01-22T04:16:59.682Z,92.00
2018-01-22T04:19:28.007Z,92.00
2018-01-22T04:21:55.608Z,91.90
2018-01-22T04:24:23.925Z,92.00
2018-01-22T04:26:52.175Z,92.00
2018-01-22T04:29:20.465Z,91.90
2018-01-22T04:31:48.778Z,91.90
2018-01-22T04:34:16.291Z,91.90
2018-01-22T04:36:43.886Z,91.80
2018-01-22T04:39:11.414Z,91.80
2018-01-22T04:41:38.947Z,91.80
2018-01-22T04:44:06.481Z,91.80
2018-01-22T04:46:34.004Z,91.90
2018-01-22T04:49:01.543Z,91.90
2018-01-22T04:51:29.064Z,91.90
2018-01-22T04:53:57.348Z,91.90
2018-01-22T04:56:25.647Z,92.00
2018-01-22T04:58:53.170Z,91.90
2018-01-22T05:01:20.984Z,91.90
2018-01-22T05:03:48.479Z,91.80
2018-01-22T05:06:16.045Z,91.80
2018-01-22T05:08:43.589Z,91.80
2018-01-22T05:11:11.115Z,91.80
2018-01-22T05:13:39.425Z,91.90
2018-01-22T05:16:06.920Z,91.90
2018-01-22T05:18:34.455Z,91.80
2018-01-22T05:21:01.991Z,91.90
2018-01-22T05:23:30.278Z,91.80
2018-01-22T05:25:58.619Z,91.90
2018-01-22T05:28:26.905Z,92.10
2018-01-22T05:30:54.428Z,92.10
2018-01-22T05:33:22.131Z,92.30
2018-01-22T05:35:49.655Z,92.50
2018-01-22T05:38:17.192Z,92.70
2018-01-22T05:40:44.727Z,92.80
2018-01-22T05:43:13.067Z,92.70
2018-01-22T05:45:40.616Z,92.70
2018-01-22T05:48:08.916Z,92.20
2018-01-22T05:50:36.439Z,92.10
2018-01-22T05:53:03.964Z,92.20
2018-01-22T05:55:31.480Z,92.20
2018-01-22T05:57:59.023Z,92.30
2018-01-22T06:00:26.565Z,92.40
2018-01-22T06:02:54.094Z,92.50
2018-01-22T06:05:22.387Z,92.80
2018-01-22T06:07:49.909Z,92.80
2018-01-22T06:10:17.444Z,92.70
2018-01-22T06:12:44.963Z,92.70
2018-01-22T06:15:13.270Z,92.70
2018-01-22T06:17:40.790Z,92.60
2018-01-22T06:20:08.309Z,92.70
2018-01-22T06:22:36.009Z,92.70
2018-01-22T06:25:04.288Z,92.60
2018-01-22T06:27:32.575Z,92.70
2018-01-22T06:30:00.150Z,92.40
2018-01-22T06:32:27.664Z,92.70
2018-01-22T06:34:55.263Z,92.70
2018-01-22T06:37:22.793Z,92.70
2018-01-22T06:39:50.312Z,92.70
2018-01-22T06:42:17.843Z,92.80
2018-01-22T06:44:45.369Z,92.80
2018-01-22T06:47:13.670Z,93.30
2018-01-22T06:49:41.199Z,93.20
2018-01-22T06:52:09.619Z,93.90
2018-01-22T06:54:37.140Z,93.60
2018-01-22T06:57:04.689Z,93.70
2018-01-22T06:59:32.237Z,93.80
2018-01-22T07:01:59.768Z,93.90
2018-01-22T07:04:28.047Z,93.90
2018-01-22T07:06:55.654Z,93.90
2018-01-22T07:09:23.232Z,94.00
2018-01-22T07:11:50.771Z,94.20
2018-01-22T07:14:18.307Z,94.50
2018-01-22T07:16:46.601Z,94.70
2018-01-22T07:19:14.183Z,94.70
2018-01-22T07:21:41.748Z,95.00
2018-01-22T07:24:09.306Z,95.00
2018-01-22T07:26:36.833Z,95.10
2018-01-22T07:29:05.121Z,95.60
2018-01-22T07:31:33.412Z,95.90
2018-01-22T07:34:00.935Z,95.90
2018-01-22T07:36:28.484Z,96.00
2018-01-22T07:38:56.004Z,96.10
2018-01-22T07:41:23.548Z,96.10
2018-01-22T07:43:51.077Z,96.20
2018-01-22T07:46:18.618Z,96.20
2018-01-22T07:48:46.160Z,96.00
2018-01-22T07:51:14.673Z,95.50
2018-01-22T07:53:42.202Z,95.50
2018-01-22T07:56:10.506Z,95.30
2018-01-22T07:58:38.045Z,95.30
2018-01-22T08:01:06.388Z,95.20
2018-01-22T08:03:34.695Z,95.20
2018-01-22T08:06:02.250Z,95.20
2018-01-22T08:08:29.796Z,95.30
2018-01-22T08:10:57.319Z,95.40
2018-01-22T08:13:24.881Z,95.50
2018-01-22T08:15:53.164Z,95.60
2018-01-22T08:18:21.521Z,95.70
2018-01-22T08:20:49.093Z,95.60
2018-01-22T08:23:16.622Z,95.60
2018-01-22T08:25:44.199Z,95.30
2018-01-22T08:28:11.733Z,95.50
2018-01-22T08:30:39.246Z,95.30
2018-01-22T08:33:06.804Z,95.20
2018-01-22T08:35:34.433Z,95.20
2018-01-22T08:38:01.956Z,95.10
2018-01-22T08:40:29.483Z,95.00
2018-01-22T08:42:57.011Z,94.80
2018-01-22T08:45:25.436Z,94.70
2018-01-22T08:47:52.962Z,94.50
2018-01-22T08:50:20.513Z,94.50
2018-01-22T08:52:48.808Z,94.40
2018-01-22T08:55:16.340Z,94.40
2018-01-22T08:57:43.852Z,94.70
2018-01-22T09:00:11.415Z,94.60
2018-01-22T09:02:39.091Z,94.60
2018-01-22T09:05:06.614Z,94.50
2018-01-22T09:07:34.904Z,94.60
2018-01-22T09:10:03.237Z,94.60
2018-01-22T09:12:30.763Z,94.60
2018-01-22T09:14:58.308Z,94.40
2018-01-22T09:17:26.616Z,94.30
2018-01-22T09:19:54.130Z,94.30
2018-01-22T09:22:21.677Z,93.90
2018-01-22T09:24:49.224Z,94.00
2018-01-22T09:27:16.768Z,94.10
2018-01-22T09:29:45.053Z,94.20
2018-01-22T09:32:12.580Z,94.20
2018-01-22T09:34:40.127Z,94.30
2018-01-22T09:37:07.666Z,94.40
2018-01-22T09:39:35.172Z,94.40
2018-01-22T09:42:02.697Z,94.50
2018-01-22T09:44:30.229Z,94.50
2018-01-22T09:46:58.536Z,94.80
2018-01-22T09:49:26.115Z,94.70
2018-01-22T09:51:53.633Z,94.70
2018-01-22T09:54:21.156Z,94.80
2018-01-22T09:56:48.683Z,94.80
2018-01-22T09:59:16.233Z,94.80
2018-01-22T10:01:44.517Z,94.80
2018-01-22T10:04:12.803Z,94.80
2018-01-22T10:06:41.117Z,94.70
2018-01-22T10:09:08.639Z,94.80
2018-01-22T10:11:36.976Z,94.40
2018-01-22T10:14:04.491Z,94.20
2018-01-22T10:16:32.783Z,93.70
2018-01-22T10:19:01.064Z,93.70
2018-01-22T10:21:29.361Z,93.50
2018-01-22T10:23:56.905Z,93.50
2018-01-22T10:26:25.188Z,93.40
2018-01-22T10:28:53.741Z,93.10
2018-01-22T10:31:21.293Z,93.10
2018-01-22T10:33:48.811Z,93.10
2018-01-22T10:36:17.128Z,93.10
2018-01-22T10:38:44.704Z,93.10
2018-01-22T10:41:12.334Z,93.10
2018-01-22T10:43:39.857Z,93.00
2018-01-22T10:46:07.380Z,93.10
2018-01-22T10:48:34.952Z,93.10
2018-01-22T10:51:02.504Z,93.20
2018-01-22T10:53:30.016Z,93.20
2018-01-22T10:55:57.542Z,93.20
2018-01-22T10:58:25.073Z,93.40
2018-01-22T11:00:53.388Z,92.50
2018-01-22T11:03:20.998Z,92.90
2018-01-22T11:05:48.517Z,92.80
2018-01-22T11:08:16.049Z,93.10
2018-01-22T11:10:44.398Z,93.50
2018-01-22T11:13:11.951Z,93.40
2018-01-22T11:15:45.183Z,93.50
2018-01-22T11:18:12.721Z,93.60
2018-01-22T11:20:40.247Z,94.00
2018-01-22T11:23:07.799Z,93.80
2018-01-22T11:25:36.080Z,93.90
2018-01-22T11:28:04.368Z,93.90
2018-01-22T11:30:32.666Z,93.90
2018-01-22T11:33:00.192Z,93.90
2018-01-22T11:35:28.495Z,94.00
2018-01-22T11:37:56.013Z,93.80
2018-01-22T11:40:23.536Z,93.80
2018-01-22T11:42:51.094Z,93.70
2018-01-22T11:45:19.655Z,93.60
2018-01-22T11:47:47.172Z,93.80
2018-01-22T11:50:14.709Z,92.90
2018-01-22T11:52:42.235Z,93.70
2018-01-22T11:55:09.774Z,93.80
2018-01-22T11:57:37.324Z,93.90
2018-01-22T12:00:04.839Z,93.40
2018-01-22T12:02:32.362Z,93.30
2018-01-22T12:04:59.893Z,93.70
2018-01-22T12:07:27.429Z,93.90
2018-01-22T12:09:54.954Z,93.30
2018-01-22T12:12:22.489Z,93.30
2018-01-22T12:14:50.065Z,93.90
2018-01-22T12:17:17.573Z,94.10
2018-01-22T12:19:45.116Z,94.20
2018-01-22T12:22:12.662Z,94.10
2018-01-22T12:24:40.190Z,94.00
2018-01-22T12:27:07.726Z,93.30
2018-01-22T12:29:35.273Z,93.90
2018-01-22T12:32:02.828Z,94.00
2018-01-22T12:34:30.350Z,94.20
2018-01-22T12:36:57.873Z,94.00
2018-01-22T12:39:25.400Z,94.30
2018-01-22T12:41:52.943Z,94.40
2018-01-22T12:44:21.285Z,94.80
2018-01-22T12:46:48.810Z,94.40
2018-01-22T12:49:17.102Z,94.40
2018-01-22T12:51:44.611Z,94.40
2018-01-22T12:54:12.226Z,94.40
2018-01-22T12:56:40.542Z,94.60
2018-01-22T12:59:08.057Z,94.60
2018-01-22T13:01:36.366Z,94.60
2018-01-22T13:04:03.923Z,94.50
2018-01-22T13:06:31.589Z,94.30
2018-01-22T13:08:59.120Z,94.50
2018-01-22T13:11:26.665Z,94.30
2018-01-22T13:13:54.177Z,94.40
2018-01-22T13:16:22.541Z,94.80
2018-01-22T13:18:50.097Z,94.80
2018-01-22T13:21:17.656Z,94.70
2018-01-22T13:23:45.172Z,94.50
2018-01-22T13:26:12.697Z,94.40
2018-01-22T13:28:40.227Z,94.50
2018-01-22T13:31:07.748Z,94.60
2018-01-22T13:33:36.034Z,94.60
2018-01-22T13:36:04.341Z,94.70
2018-01-22T13:38:31.888Z,94.60
2018-01-22T13:41:05.142Z,94.70
2018-01-22T13:43:32.667Z,94.80
2018-01-22T13:46:00.331Z,94.80
2018-01-22T13:48:27.852Z,94.90
2018-01-22T13:50:55.378Z,94.90
2018-01-22T13:53:22.928Z,94.80
2018-01-22T13:55:50.452Z,95.10
2018-01-22T13:58:18.773Z,95.00
2018-01-22T14:00:46.409Z,94.90
2018-01-22T14:03:14.707Z,94.90
2018-01-22T14:05:42.235Z,94.90
2018-01-22T14:08:09.761Z,94.90
2018-01-22T14:10:37.317Z,94.80
2018-01-22T14:13:07.253Z,94.90
2018-01-22T14:15:35.737Z,95.00
2018-01-22T14:18:03.274Z,95.00
2018-01-22T14:20:30.812Z,95.10
2018-01-22T14:22:58.333Z,95.00
2018-01-22T14:25:25.860Z,95.00
2018-01-22T14:27:53.421Z,95.10
2018-01-22T14:30:21.721Z,95.00
2018-01-22T14:32:49.307Z,95.00
2018-01-22T14:35:16.869Z,95.10
2018-01-22T14:37:47.969Z,95.00
2018-01-22T14:40:15.509Z,95.00
2018-01-22T14:42:43.029Z,94.80
2018-01-22T14:45:10.595Z,94.90
2018-01-22T14:47:38.145Z,94.90
2018-01-22T14:50:06.457Z,94.90
2018-01-22T14:52:33.980Z,94.90
2018-01-22T14:55:02.270Z,95.00
2018-01-22T14:57:30.564Z,95.00
2018-01-22T14:59:58.109Z,94.90
2018-01-22T15:02:25.667Z,94.90
2018-01-22T15:04:53.326Z,93.90
2018-01-22T15:07:20.848Z,93.80
2018-01-22T15:09:48.441Z,93.40
2018-01-22T15:12:16.270Z,93.40
2018-01-22T15:14:44.575Z,93.60
2018-01-22T15:17:12.128Z,93.60
2018-01-22T15:19:39.641Z,93.80
2018-01-22T15:22:07.214Z,94.20
2018-01-22T15:24:34.759Z,94.30
2018-01-22T15:27:02.320Z,94.20
2018-01-22T15:29:29.853Z,94.40
2018-01-22T15:31:57.389Z,94.70
2018-01-22T15:34:25.690Z,94.50
2018-01-22T15:36:53.219Z,94.50
2018-01-22T15:39:20.789Z,94.50
2018-01-22T15:41:48.308Z,94.10
2018-01-22T15:44:15.835Z,93.80
2018-01-22T15:46:44.140Z,93.90
2018-01-22T15:49:11.689Z,93.90
2018-01-22T15:51:40.002Z,94.20
2018-01-22T15:54:07.538Z,94.20
2018-01-22T15:56:35.056Z,94.00
2018-01-22T15:59:02.641Z,94.20
2018-01-22T16:01:30.173Z,94.40
2018-01-22T16:03:57.717Z,94.30
2018-01-22T16:06:25.248Z,94.20
2018-01-22T16:08:53.553Z,94.30
2018-01-22T16:11:21.086Z,94.30
2018-01-22T16:13:48.641Z,94.40
2018-01-22T16:16:16.193Z,94.40
2018-01-22T16:18:43.724Z,94.40
2018-01-22T16:21:11.269Z,94.50
2018-01-22T16:23:39.571Z,94.80
2018-01-22T16:26:07.144Z,94.80
2018-01-22T16:28:34.660Z,94.90
2018-01-22T16:31:02.965Z,95.00
2018-01-22T16:33:31.267Z,94.90
2018-01-22T16:35:58.798Z,94.90
2018-01-22T16:38:27.115Z,95.00
2018-01-22T16:40:54.761Z,95.00
2018-01-22T16:43:22.294Z,95.10
2018-01-22T16:45:49.845Z,95.30
2018-01-22T16:48:17.433Z,95.30
2018-01-22T16:50:44.992Z,95.20
2018-01-22T16:53:12.549Z,94.90
2018-01-22T16:55:40.089Z,94.90
2018-01-22T16:58:07.618Z,95.00
2018-01-22T17:00:35.938Z,94.70
2018-01-22T17:03:03.484Z,94.80
2018-01-22T17:05:31.048Z,94.70
2018-01-22T17:07:58.586Z,94.60
2018-01-22T17:10:26.894Z,94.20
2018-01-22T17:12:54.428Z,94.20
2018-01-22T17:15:23.029Z,94.20
2018-01-22T17:17:50.569Z,94.20
2018-01-22T17:20:19.014Z,94.20
2018-01-22T17:22:46.555Z,94.10
2018-01-22T17:25:14.238Z,94.30
2018-01-22T17:27:41.764Z,94.40
2018-01-22T17:30:10.071Z,94.70
2018-01-22T17:32:37.609Z,94.70
2018-01-22T17:35:06.094Z,94.70
2018-01-22T17:37:34.404Z,94.30
2018-01-22T17:40:01.974Z,94.30
2018-01-22T17:42:29.519Z,94.20
2018-01-22T17:44:57.837Z,94.10
2018-01-22T17:47:25.394Z,94.00
2018-01-22T17:49:52.944Z,93.90
2018-01-22T17:52:20.540Z,93.10
2018-01-22T17:54:48.101Z,93.00
2018-01-22T17:57:15.652Z,92.30
2018-01-22T17:59:43.690Z,92.50
2018-01-22T18:02:11.236Z,92.20
2018-01-22T18:04:38.864Z,92.70
2018-01-22T18:07:06.468Z,92.90
2018-01-22T18:09:33.963Z,93.10
2018-01-22T18:12:02.302Z,93.40
2018-01-22T18:14:29.905Z,93.40
2018-01-22T18:16:57.470Z,93.60
2018-01-22T18:19:24.988Z,93.60
2018-01-22T18:21:52.547Z,93.80
2018-01-22T18:24:20.106Z,93.80
2018-01-22T18:26:47.648Z,93.70
2018-01-22T18:29:15.980Z,93.50
2018-01-22T18:31:44.363Z,93.40
2018-01-22T18:34:11.913Z,93.40
2018-01-22T18:36:39.506Z,93.50
2018-01-22T18:39:07.144Z,93.40
2018-01-22T18:41:34.693Z,93.60
2018-01-22T18:44:02.252Z,93.50
2018-01-22T18:46:30.550Z,93.50
2018-01-22T18:48:58.124Z,93.40
2018-01-22T18:51:25.674Z,93.50
2018-01-22T18:53:53.226Z,93.60
2018-01-22T18:56:21.544Z,93.70
2018-01-22T18:58:49.073Z,93.70
2018-01-22T19:01:17.379Z,93.90
2018-01-22T19:03:44.915Z,93.60
2018-01-22T19:06:13.266Z,93.50
2018-01-22T19:08:40.829Z,93.40
2018-01-22T19:11:08.415Z,93.40
2018-01-22T19:13:35.967Z,93.40
2018-01-22T19:16:03.528Z,93.40
2018-01-22T19:18:31.120Z,93.50
2018-01-22T19:20:58.730Z,93.50
2018-01-22T19:23:26.250Z,93.50
2018-01-22T19:25:54.565Z,93.60
2018-01-22T19:28:22.124Z,93.50
2018-01-22T19:30:49.697Z,93.40
2018-01-22T19:33:17.485Z,93.20
2018-01-22T19:35:45.000Z,93.00
2018-01-22T19:38:13.316Z,92.40
2018-01-22T19:40:40.865Z,92.40
2018-01-22T19:43:09.197Z,91.90
2018-01-22T19:45:36.746Z,91.90
2018-01-22T19:48:04.379Z,91.60
2018-01-22T19:50:32.664Z,90.90
2018-01-22T19:53:00.224Z,90.90
2018-01-22T19:55:28.635Z,90.30
2018-01-22T19:57:56.280Z,90.30
2018-01-22T20:00:23.860Z,90.20
2018-01-22T20:02:51.531Z,90.10
2018-01-22T20:05:19.075Z,90.20
2018-01-22T20:07:47.436Z,90.30
2018-01-22T20:10:14.978Z,90.30
2018-01-22T20:12:42.516Z,90.40
2018-01-22T20:15:10.102Z,90.30
2018-01-22T20:17:37.658Z,90.20
2018-01-22T20:20:05.291Z,90.20
2018-01-22T20:22:33.594Z,90.20
2018-01-22T20:25:01.123Z,90.10
2018-01-22T20:27:29.462Z,89.80
2018-01-22T20:29:57.062Z,89.80
2018-01-22T20:32:24.611Z,89.80
2018-01-22T20:34:52.162Z,89.80
2018-01-22T20:37:19.717Z,90.30
2018-01-22T20:39:47.280Z,90.20
2018-01-22T20:42:14.862Z,90.30
2018-01-22T20:44:42.463Z,90.20
2018-01-22T20:47:10.071Z,90.30
2018-01-22T20:49:37.648Z,90.40
2018-01-22T20:52:05.193Z,90.40
2018-01-22T20:54:32.754Z,90.40
2018-01-22T20:57:01.055Z,90.40
2018-01-22T20:59:28.646Z,90.40
2018-01-22T21:01:56.195Z,90.30
2018-01-22T21:04:23.749Z,90.10
2018-01-22T21:06:51.288Z,89.80
2018-01-22T21:09:18.977Z,89.80
2018-01-22T21:11:46.520Z,90.20
2018-01-22T21:14:14.066Z,90.10
2018-01-22T21:16:42.391Z,90.20
2018-01-22T21:19:09.949Z,90.10
2018-01-22T21:21:37.472Z,90.20
2018-01-22T21:24:05.041Z,90.30
2018-01-22T21:26:32.609Z,90.40
2018-01-22T21:29:00.932Z,90.60
2018-01-22T21:31:28.468Z,90.60
2018-01-22T21:33:56.764Z,90.60
2018-01-22T21:36:24.362Z,90.60
2018-01-22T21:38:52.002Z,90.50
2018-01-22T21:41:19.643Z,90.50
2018-01-22T21:43:47.258Z,90.40
2018-01-22T21:46:14.809Z,90.30
2018-01-22T21:48:42.398Z,90.60
2018-01-22T21:51:10.080Z,90.50
2018-01-22T21:53:37.811Z,90.50
2018-01-22T21:56:05.331Z,90.60
2018-01-22T21:58:32.876Z,90.40
2018-01-22T22:01:00.502Z,90.40
2018-01-22T22:03:28.037Z,90.50
2018-01-22T22:05:56.402Z,90.80
2018-01-22T22:08:23.949Z,90.40
2018-01-22T22:10:52.276Z,90.40
2018-01-22T22:13:20.620Z,90.40
2018-01-22T22:15:48.165Z,90.40
2018-01-22T22:18:15.707Z,90.30
2018-01-22T22:20:43.242Z,90.40
2018-01-22T22:23:10.782Z,90.30
2018-01-22T22:25:38.349Z,90.30
2018-01-22T22:28:05.894Z,90.20
2018-01-22T22:30:33.427Z,90.00
2018-01-22T22:33:00.967Z,89.80
2018-01-22T22:35:28.500Z,89.80
2018-01-22T22:37:56.339Z,89.90
2018-01-22T22:40:23.883Z,90.00
2018-01-22T22:42:52.165Z,89.70
2018-01-22T22:45:20.659Z,89.80
2018-01-22T22:47:48.957Z,89.70
2018-01-22T22:50:16.828Z,89.70
2018-01-22T22:52:44.355Z,89.70
2018-01-22T22:55:11.877Z,90.00
2018-01-22T22:57:39.403Z,90.00
2018-01-22T23:00:07.728Z,90.20
2018-01-22T23:02:35.275Z,90.20
2018-01-22T23:05:02.814Z,90.30
2018-01-22T23:07:31.117Z,90.20
2018-01-22T23:09:58.655Z,90.20
2018-01-22T23:12:26.980Z,90.00
2018-01-22T23:14:56.428Z,90.00
2018-01-22T23:17:24.165Z,90.20
2018-01-22T23:19:51.686Z,90.20
2018-01-22T23:22:19.972Z,90.40
2018-01-22T23:24:48.272Z,90.30
2018-01-22T23:27:15.831Z,90.30
2018-01-22T23:29:44.130Z,90.20
2018-01-22T23:32:11.659Z,90.20
2018-01-22T23:34:39.974Z,90.10
2018-01-22T23:37:07.510Z,90.10
2018-01-22T23:39:35.829Z,90.10
2018-01-22T23:42:03.388Z,90.40
2018-01-22T23:44:31.684Z,90.10
2018-01-22T23:46:59.291Z,90.50
2018-01-22T23:49:26.830Z,90.00
2018-01-22T23:51:54.372Z,90.00
2018-01-22T23:54:21.903Z,89.90
2018-01-22T23:56:50.196Z,90.00
2018-01-22T23:59:17.749Z,90.00
